Estación Meteorológica Peña el Pijo (Robertgarden) [ 01/30/23 14:04:05 CET ]

Fecha Hora Presion(HPa) Temp (°C) Humedad % Rocio (°C) Viento ( m/s) Direccion Lluvia 1Hora(mm) Lluvia 24H(mm) LLuvia Total(mm)
2012-Dec-15 01:01:14 1005.700 11.3 71 6.3         178.19
2012-Dec-15 02:10:06 1006.100 11.5 73 6.8         178.19
2012-Dec-15 03:05:14 1006.300 11.6 73 6.9         178.19
2012-Dec-15 04:01:16 1006.700 11.6 75 7.3         178.19
2012-Dec-15 05:01:14 1007.000 11.4 76 7.3         178.19
2012-Dec-15 06:01:12 1006.600 11.2 78 7.5         178.19
2012-Dec-15 07:01:12 1007.100 11.5 79 8.0         178.19
2012-Dec-15 08:01:15 1007.900 11.8 79 8.3         178.19
2012-Dec-15 09:01:11 1008.500 11.9 79 8.4 1.9 S     178.19
2012-Dec-15 10:01:14 1009.300 12.6 77 8.7 1.9 SSW     178.19
2012-Dec-15 11:01:19 1010.500 13.3 76 9.1         178.19
2012-Dec-15 12:01:14 1010.800 13.9 79 10.3         178.19
2012-Dec-15 13:01:14 1010.400 16.8 68 10.9         178.19
2012-Dec-15 14:01:17 1010.100 16.1 67 10.0         178.19
2012-Dec-15 15:01:11 1010.000 14.9 70 9.5 1.3 SSW     178.19
2012-Dec-15 16:01:12 1010.000 14.9 70 9.5         178.19
2012-Dec-15 17:01:17 1010.500 14.2 72 9.2         178.19
2012-Dec-15 18:01:17 1011.000 13.3 75 8.9         178.19
2012-Dec-15 19:01:14 1011.600 12.9 77 8.9         178.19
2012-Dec-15 20:01:15 1012.000 12.1 81 9.0         178.19
2012-Dec-15 21:01:15 1012.200 11.4 85 8.9         178.19
2012-Dec-15 22:01:12 1012.400 11.4 86 9.1         178.19
2012-Dec-15 23:01:19 1012.800 11.6 85 9.2         178.19

Temperatura Máxima:16°    Temperatura Mínima:11°
Presión Máxima:1012.800 Hpa    Presión Mínima:1005.700 Hpa


Volver